sensor_id;sensor_type;location;lat;lon;timestamp;P1;durP1;ratioP1;P2;durP2;ratioP2
10641;SDS011;5369;49.586;8.646;2023-05-03T00:01:14;6.77;;;4.73;;
10641;SDS011;5369;49.586;8.646;2023-05-03T00:03:40;6.80;;;5.00;;
10641;SDS011;5369;49.586;8.646;2023-05-03T00:06:14;8.57;;;5.30;;
10641;SDS011;5369;49.586;8.646;2023-05-03T00:08:40;8.07;;;4.90;;
10641;SDS011;5369;49.586;8.646;2023-05-03T00:11:07;7.93;;;5.40;;
10641;SDS011;5369;49.586;8.646;2023-05-03T00:13:33;6.40;;;5.27;;
10641;SDS011;5369;49.586;8.646;2023-05-03T00:15:59;6.13;;;4.97;;
10641;SDS011;5369;49.586;8.646;2023-05-03T00:18:26;7.13;;;5.30;;
10641;SDS011;5369;49.586;8.646;2023-05-03T00:20:53;8.50;;;5.90;;
10641;SDS011;5369;49.586;8.646;2023-05-03T00:23:19;7.70;;;4.83;;
10641;SDS011;5369;49.586;8.646;2023-05-03T00:25:46;9.03;;;6.00;;
10641;SDS011;5369;49.586;8.646;2023-05-03T00:28:12;7.60;;;5.20;;
10641;SDS011;5369;49.586;8.646;2023-05-03T00:30:38;9.47;;;6.13;;
10641;SDS011;5369;49.586;8.646;2023-05-03T00:33:04;7.47;;;5.07;;
10641;SDS011;5369;49.586;8.646;2023-05-03T00:35:30;7.90;;;5.83;;
10641;SDS011;5369;49.586;8.646;2023-05-03T00:37:56;6.70;;;5.30;;
10641;SDS011;5369;49.586;8.646;2023-05-03T00:40:22;9.23;;;5.07;;
10641;SDS011;5369;49.586;8.646;2023-05-03T00:42:49;7.50;;;5.70;;
10641;SDS011;5369;49.586;8.646;2023-05-03T00:45:15;8.93;;;5.43;;
10641;SDS011;5369;49.586;8.646;2023-05-03T00:47:41;9.23;;;5.17;;
10641;SDS011;5369;49.586;8.646;2023-05-03T00:50:07;8.03;;;5.27;;
10641;SDS011;5369;49.586;8.646;2023-05-03T00:52:35;9.20;;;5.67;;
10641;SDS011;5369;49.586;8.646;2023-05-03T00:55:02;7.23;;;5.20;;
10641;SDS011;5369;49.586;8.646;2023-05-03T00:57:28;6.70;;;5.07;;
10641;SDS011;5369;49.586;8.646;2023-05-03T00:59:55;7.47;;;4.90;;
10641;SDS011;5369;49.586;8.646;2023-05-03T01:02:22;5.87;;;4.60;;
10641;SDS011;5369;49.586;8.646;2023-05-03T01:04:49;6.27;;;5.10;;
10641;SDS011;5369;49.586;8.646;2023-05-03T01:07:29;7.23;;;5.53;;
10641;SDS011;5369;49.586;8.646;2023-05-03T01:10:45;8.03;;;5.73;;
10641;SDS011;5369;49.586;8.646;2023-05-03T01:15:15;9.90;;;5.93;;
10641;SDS011;5369;49.586;8.646;2023-05-03T01:17:47;8.40;;;6.03;;
10641;SDS011;5369;49.586;8.646;2023-05-03T01:20:15;10.17;;;5.93;;
10641;SDS011;5369;49.586;8.646;2023-05-03T01:25:19;9.97;;;5.53;;
10641;SDS011;5369;49.586;8.646;2023-05-03T01:27:45;8.80;;;6.60;;
10641;SDS011;5369;49.586;8.646;2023-05-03T01:30:12;10.33;;;6.17;;
10641;SDS011;5369;49.586;8.646;2023-05-03T01:32:44;9.97;;;6.10;;
10641;SDS011;5369;49.586;8.646;2023-05-03T01:35:19;11.53;;;6.80;;
10641;SDS011;5369;49.586;8.646;2023-05-03T01:37:48;9.70;;;6.47;;
10641;SDS011;5369;49.586;8.646;2023-05-03T01:40:15;9.40;;;6.20;;
10641;SDS011;5369;49.586;8.646;2023-05-03T01:42:43;8.83;;;6.43;;
10641;SDS011;5369;49.586;8.646;2023-05-03T01:45:10;9.73;;;6.43;;
10641;SDS011;5369;49.586;8.646;2023-05-03T01:47:37;9.50;;;6.53;;
10641;SDS011;5369;49.586;8.646;2023-05-03T01:50:03;6.53;;;5.43;;
10641;SDS011;5369;49.586;8.646;2023-05-03T01:52:29;8.70;;;6.20;;
10641;SDS011;5369;49.586;8.646;2023-05-03T01:54:55;8.50;;;5.50;;
10641;SDS011;5369;49.586;8.646;2023-05-03T01:57:22;6.70;;;4.53;;
10641;SDS011;5369;49.586;8.646;2023-05-03T01:59:48;7.33;;;5.37;;
10641;SDS011;5369;49.586;8.646;2023-05-03T02:02:14;8.33;;;6.07;;
10641;SDS011;5369;49.586;8.646;2023-05-03T02:04:40;7.07;;;5.20;;
10641;SDS011;5369;49.586;8.646;2023-05-03T02:07:06;8.57;;;5.83;;
10641;SDS011;5369;49.586;8.646;2023-05-03T02:09:33;8.60;;;5.73;;
10641;SDS011;5369;49.586;8.646;2023-05-03T02:11:59;10.30;;;5.80;;
10641;SDS011;5369;49.586;8.646;2023-05-03T02:14:26;9.50;;;6.27;;
10641;SDS011;5369;49.586;8.646;2023-05-03T02:16:53;8.50;;;6.07;;
10641;SDS011;5369;49.586;8.646;2023-05-03T02:19:20;7.93;;;5.00;;
10641;SDS011;5369;49.586;8.646;2023-05-03T02:21:46;10.17;;;5.40;;
10641;SDS011;5369;49.586;8.646;2023-05-03T02:24:12;8.23;;;6.00;;
10641;SDS011;5369;49.586;8.646;2023-05-03T02:26:38;8.57;;;6.47;;
10641;SDS011;5369;49.586;8.646;2023-05-03T02:29:05;9.93;;;5.77;;
10641;SDS011;5369;49.586;8.646;2023-05-03T02:31:31;7.57;;;5.97;;
10641;SDS011;5369;49.586;8.646;2023-05-03T02:33:58;8.70;;;5.70;;
10641;SDS011;5369;49.586;8.646;2023-05-03T02:36:24;8.20;;;5.70;;
10641;SDS011;5369;49.586;8.646;2023-05-03T02:38:51;9.73;;;6.27;;
10641;SDS011;5369;49.586;8.646;2023-05-03T02:41:17;8.50;;;6.07;;
10641;SDS011;5369;49.586;8.646;2023-05-03T02:43:44;9.90;;;6.67;;
10641;SDS011;5369;49.586;8.646;2023-05-03T02:46:11;7.20;;;5.93;;
10641;SDS011;5369;49.586;8.646;2023-05-03T02:48:37;7.67;;;5.77;;
10641;SDS011;5369;49.586;8.646;2023-05-03T02:51:04;6.40;;;5.70;;
10641;SDS011;5369;49.586;8.646;2023-05-03T02:53:30;12.00;;;6.47;;
10641;SDS011;5369;49.586;8.646;2023-05-03T02:56:00;11.00;;;6.83;;
10641;SDS011;5369;49.586;8.646;2023-05-03T02:58:27;5.93;;;4.97;;
10641;SDS011;5369;49.586;8.646;2023-05-03T03:00:53;8.17;;;5.13;;
10641;SDS011;5369;49.586;8.646;2023-05-03T03:03:20;7.97;;;5.73;;
10641;SDS011;5369;49.586;8.646;2023-05-03T03:05:46;8.30;;;6.80;;
10641;SDS011;5369;49.586;8.646;2023-05-03T03:08:14;8.10;;;5.80;;
10641;SDS011;5369;49.586;8.646;2023-05-03T03:10:40;6.67;;;5.20;;
10641;SDS011;5369;49.586;8.646;2023-05-03T03:13:07;8.00;;;6.40;;
10641;SDS011;5369;49.586;8.646;2023-05-03T03:15:36;9.17;;;5.53;;
10641;SDS011;5369;49.586;8.646;2023-05-03T03:18:03;11.00;;;6.03;;
10641;SDS011;5369;49.586;8.646;2023-05-03T03:20:29;11.10;;;6.17;;
10641;SDS011;5369;49.586;8.646;2023-05-03T03:22:55;11.73;;;6.57;;
10641;SDS011;5369;49.586;8.646;2023-05-03T03:25:21;8.77;;;6.67;;
10641;SDS011;5369;49.586;8.646;2023-05-03T03:27:48;8.10;;;5.70;;
10641;SDS011;5369;49.586;8.646;2023-05-03T03:30:14;10.23;;;6.30;;
10641;SDS011;5369;49.586;8.646;2023-05-03T03:32:51;9.90;;;6.20;;
10641;SDS011;5369;49.586;8.646;2023-05-03T03:35:25;10.40;;;6.40;;
10641;SDS011;5369;49.586;8.646;2023-05-03T03:37:52;9.53;;;6.50;;
10641;SDS011;5369;49.586;8.646;2023-05-03T03:40:19;9.67;;;6.10;;
10641;SDS011;5369;49.586;8.646;2023-05-03T03:42:46;9.83;;;6.23;;
10641;SDS011;5369;49.586;8.646;2023-05-03T03:45:12;11.03;;;6.87;;
10641;SDS011;5369;49.586;8.646;2023-05-03T03:47:38;10.97;;;6.80;;
10641;SDS011;5369;49.586;8.646;2023-05-03T03:50:05;9.53;;;6.30;;
10641;SDS011;5369;49.586;8.646;2023-05-03T03:52:32;7.63;;;6.00;;
10641;SDS011;5369;49.586;8.646;2023-05-03T03:54:59;8.97;;;5.67;;
10641;SDS011;5369;49.586;8.646;2023-05-03T03:57:26;8.90;;;6.23;;
10641;SDS011;5369;49.586;8.646;2023-05-03T03:59:55;9.03;;;6.63;;
10641;SDS011;5369;49.586;8.646;2023-05-03T04:02:22;10.10;;;6.37;;
10641;SDS011;5369;49.586;8.646;2023-05-03T04:04:49;10.30;;;5.97;;
10641;SDS011;5369;49.586;8.646;2023-05-03T04:07:16;10.10;;;6.17;;
10641;SDS011;5369;49.586;8.646;2023-05-03T04:09:43;9.03;;;6.47;;
10641;SDS011;5369;49.586;8.646;2023-05-03T04:12:09;11.67;;;6.37;;
10641;SDS011;5369;49.586;8.646;2023-05-03T04:14:37;10.03;;;7.40;;
10641;SDS011;5369;49.586;8.646;2023-05-03T04:17:03;8.37;;;6.20;;
10641;SDS011;5369;49.586;8.646;2023-05-03T04:19:29;11.37;;;6.60;;
10641;SDS011;5369;49.586;8.646;2023-05-03T04:21:56;8.33;;;7.10;;
10641;SDS011;5369;49.586;8.646;2023-05-03T04:24:23;10.73;;;6.73;;
10641;SDS011;5369;49.586;8.646;2023-05-03T04:26:49;12.33;;;6.50;;
10641;SDS011;5369;49.586;8.646;2023-05-03T04:29:22;12.33;;;7.27;;
10641;SDS011;5369;49.586;8.646;2023-05-03T04:31:48;9.23;;;6.90;;
10641;SDS011;5369;49.586;8.646;2023-05-03T04:34:15;9.13;;;6.37;;
10641;SDS011;5369;49.586;8.646;2023-05-03T04:36:45;11.50;;;6.90;;
10641;SDS011;5369;49.586;8.646;2023-05-03T04:39:12;8.63;;;6.67;;
10641;SDS011;5369;49.586;8.646;2023-05-03T04:41:40;9.60;;;6.40;;
10641;SDS011;5369;49.586;8.646;2023-05-03T04:44:07;10.23;;;6.80;;
10641;SDS011;5369;49.586;8.646;2023-05-03T04:46:33;14.20;;;9.07;;
10641;SDS011;5369;49.586;8.646;2023-05-03T04:48:59;13.20;;;6.30;;
10641;SDS011;5369;49.586;8.646;2023-05-03T04:51:26;10.70;;;6.83;;
10641;SDS011;5369;49.586;8.646;2023-05-03T04:53:53;10.83;;;6.70;;
10641;SDS011;5369;49.586;8.646;2023-05-03T04:56:20;9.97;;;6.30;;
10641;SDS011;5369;49.586;8.646;2023-05-03T04:58:52;8.90;;;6.00;;
10641;SDS011;5369;49.586;8.646;2023-05-03T05:01:19;9.90;;;5.87;;
10641;SDS011;5369;49.586;8.646;2023-05-03T05:03:51;11.53;;;7.07;;
10641;SDS011;5369;49.586;8.646;2023-05-03T05:06:21;11.90;;;7.53;;
10641;SDS011;5369;49.586;8.646;2023-05-03T05:08:47;9.83;;;6.63;;
10641;SDS011;5369;49.586;8.646;2023-05-03T05:11:13;10.80;;;6.77;;
10641;SDS011;5369;49.586;8.646;2023-05-03T05:13:40;10.13;;;7.00;;
10641;SDS011;5369;49.586;8.646;2023-05-03T05:16:06;12.60;;;6.87;;
10641;SDS011;5369;49.586;8.646;2023-05-03T05:18:33;9.60;;;6.73;;
10641;SDS011;5369;49.586;8.646;2023-05-03T05:21:01;9.60;;;7.07;;
10641;SDS011;5369;49.586;8.646;2023-05-03T05:23:29;11.77;;;6.60;;
10641;SDS011;5369;49.586;8.646;2023-05-03T05:25:55;10.23;;;6.13;;
10641;SDS011;5369;49.586;8.646;2023-05-03T05:28:26;9.80;;;7.13;;
10641;SDS011;5369;49.586;8.646;2023-05-03T05:30:53;10.90;;;7.23;;
10641;SDS011;5369;49.586;8.646;2023-05-03T05:33:21;11.30;;;6.73;;
10641;SDS011;5369;49.586;8.646;2023-05-03T05:35:48;8.50;;;6.47;;
10641;SDS011;5369;49.586;8.646;2023-05-03T05:38:16;9.57;;;7.40;;
10641;SDS011;5369;49.586;8.646;2023-05-03T05:40:43;11.77;;;7.20;;
10641;SDS011;5369;49.586;8.646;2023-05-03T05:43:10;9.90;;;6.80;;
10641;SDS011;5369;49.586;8.646;2023-05-03T05:45:38;8.70;;;6.90;;
10641;SDS011;5369;49.586;8.646;2023-05-03T05:48:05;10.13;;;6.57;;
10641;SDS011;5369;49.586;8.646;2023-05-03T05:50:32;9.20;;;6.70;;
10641;SDS011;5369;49.586;8.646;2023-05-03T05:53:04;11.37;;;7.03;;
10641;SDS011;5369;49.586;8.646;2023-05-03T05:55:34;9.70;;;6.97;;
10641;SDS011;5369;49.586;8.646;2023-05-03T05:58:00;10.93;;;7.23;;
10641;SDS011;5369;49.586;8.646;2023-05-03T06:00:34;10.47;;;6.70;;
10641;SDS011;5369;49.586;8.646;2023-05-03T06:03:00;8.00;;;6.40;;
10641;SDS011;5369;49.586;8.646;2023-05-03T06:05:26;10.27;;;6.50;;
10641;SDS011;5369;49.586;8.646;2023-05-03T06:07:53;8.40;;;5.97;;
10641;SDS011;5369;49.586;8.646;2023-05-03T06:10:19;11.97;;;7.10;;
10641;SDS011;5369;49.586;8.646;2023-05-03T06:12:49;9.67;;;6.57;;
10641;SDS011;5369;49.586;8.646;2023-05-03T06:15:23;12.90;;;7.73;;
10641;SDS011;5369;49.586;8.646;2023-05-03T06:17:49;12.83;;;6.83;;
10641;SDS011;5369;49.586;8.646;2023-05-03T06:20:16;9.47;;;6.77;;
10641;SDS011;5369;49.586;8.646;2023-05-03T06:22:42;8.90;;;6.80;;
10641;SDS011;5369;49.586;8.646;2023-05-03T06:25:10;9.27;;;6.70;;
10641;SDS011;5369;49.586;8.646;2023-05-03T06:27:40;8.93;;;6.50;;
10641;SDS011;5369;49.586;8.646;2023-05-03T06:30:06;10.87;;;6.63;;
10641;SDS011;5369;49.586;8.646;2023-05-03T06:32:33;8.70;;;6.47;;
10641;SDS011;5369;49.586;8.646;2023-05-03T06:35:00;7.60;;;5.67;;
10641;SDS011;5369;49.586;8.646;2023-05-03T06:37:27;9.00;;;5.90;;
10641;SDS011;5369;49.586;8.646;2023-05-03T06:39:53;9.17;;;6.10;;
10641;SDS011;5369;49.586;8.646;2023-05-03T06:42:19;8.03;;;5.97;;
10641;SDS011;5369;49.586;8.646;2023-05-03T06:44:46;9.40;;;5.63;;
10641;SDS011;5369;49.586;8.646;2023-05-03T06:47:12;12.83;;;6.20;;
10641;SDS011;5369;49.586;8.646;2023-05-03T06:49:38;10.90;;;5.73;;
10641;SDS011;5369;49.586;8.646;2023-05-03T06:52:05;9.03;;;5.83;;
10641;SDS011;5369;49.586;8.646;2023-05-03T06:54:31;8.90;;;5.70;;
10641;SDS011;5369;49.586;8.646;2023-05-03T06:56:57;12.33;;;5.73;;
10641;SDS011;5369;49.586;8.646;2023-05-03T06:59:23;8.93;;;5.50;;
10641;SDS011;5369;49.586;8.646;2023-05-03T07:01:51;7.70;;;5.37;;
10641;SDS011;5369;49.586;8.646;2023-05-03T07:04:17;6.63;;;5.23;;
10641;SDS011;5369;49.586;8.646;2023-05-03T07:06:43;8.90;;;5.33;;
10641;SDS011;5369;49.586;8.646;2023-05-03T07:09:09;10.73;;;5.60;;
10641;SDS011;5369;49.586;8.646;2023-05-03T07:11:35;9.07;;;5.97;;
10641;SDS011;5369;49.586;8.646;2023-05-03T07:14:03;11.47;;;5.47;;
10641;SDS011;5369;49.586;8.646;2023-05-03T07:16:30;9.27;;;6.00;;
10641;SDS011;5369;49.586;8.646;2023-05-03T07:18:57;9.90;;;5.73;;
10641;SDS011;5369;49.586;8.646;2023-05-03T07:21:53;8.57;;;5.40;;
10641;SDS011;5369;49.586;8.646;2023-05-03T07:24:19;7.67;;;5.30;;
10641;SDS011;5369;49.586;8.646;2023-05-03T07:26:46;7.70;;;5.17;;
10641;SDS011;5369;49.586;8.646;2023-05-03T07:29:12;7.57;;;5.30;;
10641;SDS011;5369;49.586;8.646;2023-05-03T07:31:38;8.53;;;5.77;;
10641;SDS011;5369;49.586;8.646;2023-05-03T07:34:04;6.93;;;5.37;;
10641;SDS011;5369;49.586;8.646;2023-05-03T07:36:31;9.83;;;5.77;;
10641;SDS011;5369;49.586;8.646;2023-05-03T07:38:57;8.97;;;5.60;;
10641;SDS011;5369;49.586;8.646;2023-05-03T07:41:23;11.23;;;5.63;;
10641;SDS011;5369;49.586;8.646;2023-05-03T07:43:50;10.40;;;5.53;;
10641;SDS011;5369;49.586;8.646;2023-05-03T07:46:16;7.87;;;5.37;;
10641;SDS011;5369;49.586;8.646;2023-05-03T07:48:42;8.07;;;4.97;;
10641;SDS011;5369;49.586;8.646;2023-05-03T07:51:09;9.10;;;4.60;;
10641;SDS011;5369;49.586;8.646;2023-05-03T07:53:35;7.67;;;4.70;;
10641;SDS011;5369;49.586;8.646;2023-05-03T07:56:03;9.77;;;5.37;;
10641;SDS011;5369;49.586;8.646;2023-05-03T07:58:30;9.90;;;5.00;;
10641;SDS011;5369;49.586;8.646;2023-05-03T08:00:56;9.40;;;5.07;;
10641;SDS011;5369;49.586;8.646;2023-05-03T08:03:22;10.90;;;5.60;;
10641;SDS011;5369;49.586;8.646;2023-05-03T08:05:48;9.77;;;5.03;;
10641;SDS011;5369;49.586;8.646;2023-05-03T08:08:14;6.90;;;5.10;;
10641;SDS011;5369;49.586;8.646;2023-05-03T08:10:40;6.63;;;5.40;;
10641;SDS011;5369;49.586;8.646;2023-05-03T08:13:06;6.27;;;4.53;;
10641;SDS011;5369;49.586;8.646;2023-05-03T08:15:33;8.30;;;5.07;;
10641;SDS011;5369;49.586;8.646;2023-05-03T08:17:59;9.23;;;5.40;;
10641;SDS011;5369;49.586;8.646;2023-05-03T08:20:25;9.20;;;5.30;;
10641;SDS011;5369;49.586;8.646;2023-05-03T08:22:51;6.80;;;4.93;;
10641;SDS011;5369;49.586;8.646;2023-05-03T08:25:21;9.10;;;5.23;;
10641;SDS011;5369;49.586;8.646;2023-05-03T08:27:50;9.43;;;6.00;;
10641;SDS011;5369;49.586;8.646;2023-05-03T08:30:17;8.43;;;5.47;;
10641;SDS011;5369;49.586;8.646;2023-05-03T08:32:43;9.73;;;6.00;;
10641;SDS011;5369;49.586;8.646;2023-05-03T08:35:09;10.53;;;5.77;;
10641;SDS011;5369;49.586;8.646;2023-05-03T08:37:41;7.47;;;5.10;;
10641;SDS011;5369;49.586;8.646;2023-05-03T08:40:08;7.70;;;5.30;;
10641;SDS011;5369;49.586;8.646;2023-05-03T08:42:46;6.17;;;4.60;;
10641;SDS011;5369;49.586;8.646;2023-05-03T08:45:14;6.93;;;4.63;;
10641;SDS011;5369;49.586;8.646;2023-05-03T08:47:41;7.20;;;4.87;;
10641;SDS011;5369;49.586;8.646;2023-05-03T08:50:09;7.20;;;5.03;;
10641;SDS011;5369;49.586;8.646;2023-05-03T08:52:36;7.10;;;4.77;;
10641;SDS011;5369;49.586;8.646;2023-05-03T08:55:04;7.27;;;4.90;;
10641;SDS011;5369;49.586;8.646;2023-05-03T08:57:32;7.47;;;4.60;;
10641;SDS011;5369;49.586;8.646;2023-05-03T09:00:00;8.27;;;4.97;;
10641;SDS011;5369;49.586;8.646;2023-05-03T09:02:26;8.33;;;5.13;;
10641;SDS011;5369;49.586;8.646;2023-05-03T09:04:54;8.23;;;4.83;;
10641;SDS011;5369;49.586;8.646;2023-05-03T09:07:20;6.30;;;4.93;;
10641;SDS011;5369;49.586;8.646;2023-05-03T09:09:47;4.87;;;4.30;;
10641;SDS011;5369;49.586;8.646;2023-05-03T09:12:31;7.13;;;4.50;;
10641;SDS011;5369;49.586;8.646;2023-05-03T09:14:58;7.73;;;4.57;;
10641;SDS011;5369;49.586;8.646;2023-05-03T09:17:25;7.53;;;5.00;;
10641;SDS011;5369;49.586;8.646;2023-05-03T09:19:52;7.87;;;5.17;;
10641;SDS011;5369;49.586;8.646;2023-05-03T09:22:19;7.70;;;4.97;;
10641;SDS011;5369;49.586;8.646;2023-05-03T09:24:55;7.20;;;4.60;;
10641;SDS011;5369;49.586;8.646;2023-05-03T09:27:22;7.40;;;5.07;;
10641;SDS011;5369;49.586;8.646;2023-05-03T09:29:48;6.10;;;4.90;;
10641;SDS011;5369;49.586;8.646;2023-05-03T09:32:15;7.57;;;5.00;;
10641;SDS011;5369;49.586;8.646;2023-05-03T09:34:41;9.90;;;5.67;;
10641;SDS011;5369;49.586;8.646;2023-05-03T09:37:08;7.27;;;5.47;;
10641;SDS011;5369;49.586;8.646;2023-05-03T09:39:34;11.53;;;5.83;;
10641;SDS011;5369;49.586;8.646;2023-05-03T09:42:13;7.23;;;5.63;;
10641;SDS011;5369;49.586;8.646;2023-05-03T09:44:40;8.27;;;5.90;;
10641;SDS011;5369;49.586;8.646;2023-05-03T09:47:07;6.27;;;5.43;;
10641;SDS011;5369;49.586;8.646;2023-05-03T09:49:33;6.33;;;5.50;;
10641;SDS011;5369;49.586;8.646;2023-05-03T09:52:03;6.23;;;4.83;;
10641;SDS011;5369;49.586;8.646;2023-05-03T09:54:30;11.47;;;5.80;;
10641;SDS011;5369;49.586;8.646;2023-05-03T09:56:56;7.60;;;5.23;;
10641;SDS011;5369;49.586;8.646;2023-05-03T09:59:23;7.27;;;5.43;;
10641;SDS011;5369;49.586;8.646;2023-05-03T10:01:49;7.33;;;5.40;;
10641;SDS011;5369;49.586;8.646;2023-05-03T10:04:17;7.20;;;5.50;;
10641;SDS011;5369;49.586;8.646;2023-05-03T10:06:47;7.57;;;5.57;;
10641;SDS011;5369;49.586;8.646;2023-05-03T10:09:30;6.80;;;5.80;;
10641;SDS011;5369;49.586;8.646;2023-05-03T10:11:59;9.27;;;5.70;;
10641;SDS011;5369;49.586;8.646;2023-05-03T10:14:26;8.27;;;6.40;;
10641;SDS011;5369;49.586;8.646;2023-05-03T10:16:55;8.67;;;5.33;;
10641;SDS011;5369;49.586;8.646;2023-05-03T10:19:24;6.23;;;4.70;;
10641;SDS011;5369;49.586;8.646;2023-05-03T10:22:04;7.80;;;4.83;;
10641;SDS011;5369;49.586;8.646;2023-05-03T10:24:31;5.63;;;4.57;;
10641;SDS011;5369;49.586;8.646;2023-05-03T10:26:57;8.57;;;5.07;;
10641;SDS011;5369;49.586;8.646;2023-05-03T10:32:03;6.83;;;4.23;;
10641;SDS011;5369;49.586;8.646;2023-05-03T10:34:33;7.63;;;4.30;;
10641;SDS011;5369;49.586;8.646;2023-05-03T10:37:00;7.03;;;4.70;;
10641;SDS011;5369;49.586;8.646;2023-05-03T10:39:27;6.97;;;4.70;;
10641;SDS011;5369;49.586;8.646;2023-05-03T10:44:27;6.30;;;4.00;;
10641;SDS011;5369;49.586;8.646;2023-05-03T10:46:53;5.20;;;4.30;;
10641;SDS011;5369;49.586;8.646;2023-05-03T10:49:20;6.10;;;4.30;;
10641;SDS011;5369;49.586;8.646;2023-05-03T10:51:47;4.50;;;3.90;;
10641;SDS011;5369;49.586;8.646;2023-05-03T10:54:13;5.10;;;3.90;;
10641;SDS011;5369;49.586;8.646;2023-05-03T10:56:51;6.97;;;4.63;;
10641;SDS011;5369;49.586;8.646;2023-05-03T10:59:17;5.60;;;4.00;;
10641;SDS011;5369;49.586;8.646;2023-05-03T11:01:43;6.00;;;4.23;;
10641;SDS011;5369;49.586;8.646;2023-05-03T11:06:38;7.60;;;4.77;;
10641;SDS011;5369;49.586;8.646;2023-05-03T11:09:05;6.23;;;5.20;;
10641;SDS011;5369;49.586;8.646;2023-05-03T11:11:32;5.83;;;4.43;;
10641;SDS011;5369;49.586;8.646;2023-05-03T11:13:58;6.03;;;4.20;;
10641;SDS011;5369;49.586;8.646;2023-05-03T11:16:25;5.00;;;3.43;;
10641;SDS011;5369;49.586;8.646;2023-05-03T11:18:51;6.53;;;4.00;;
10641;SDS011;5369;49.586;8.646;2023-05-03T11:21:17;6.33;;;3.90;;
10641;SDS011;5369;49.586;8.646;2023-05-03T11:23:44;6.40;;;4.20;;
10641;SDS011;5369;49.586;8.646;2023-05-03T11:26:10;6.63;;;4.70;;
10641;SDS011;5369;49.586;8.646;2023-05-03T11:28:37;6.57;;;3.50;;
10641;SDS011;5369;49.586;8.646;2023-05-03T11:31:03;4.60;;;3.60;;
10641;SDS011;5369;49.586;8.646;2023-05-03T11:33:31;4.73;;;3.30;;
10641;SDS011;5369;49.586;8.646;2023-05-03T11:36:02;7.13;;;4.10;;
10641;SDS011;5369;49.586;8.646;2023-05-03T11:38:30;6.03;;;4.10;;
10641;SDS011;5369;49.586;8.646;2023-05-03T11:40:57;5.40;;;4.00;;
10641;SDS011;5369;49.586;8.646;2023-05-03T11:43:24;6.07;;;5.03;;
10641;SDS011;5369;49.586;8.646;2023-05-03T11:45:51;6.37;;;4.10;;
10641;SDS011;5369;49.586;8.646;2023-05-03T11:48:17;4.40;;;4.00;;
10641;SDS011;5369;49.586;8.646;2023-05-03T11:50:47;6.30;;;4.30;;
10641;SDS011;5369;49.586;8.646;2023-05-03T11:53:16;6.27;;;4.30;;
10641;SDS011;5369;49.586;8.646;2023-05-03T11:55:43;4.80;;;4.00;;
10641;SDS011;5369;49.586;8.646;2023-05-03T11:58:12;11.57;;;4.30;;
10641;SDS011;5369;49.586;8.646;2023-05-03T12:00:38;4.63;;;4.00;;
10641;SDS011;5369;49.586;8.646;2023-05-03T12:03:05;7.30;;;4.00;;
10641;SDS011;5369;49.586;8.646;2023-05-03T12:05:32;4.83;;;3.83;;
10641;SDS011;5369;49.586;8.646;2023-05-03T12:07:58;5.00;;;3.60;;
10641;SDS011;5369;49.586;8.646;2023-05-03T12:10:29;6.77;;;3.90;;
10641;SDS011;5369;49.586;8.646;2023-05-03T12:12:56;5.03;;;4.13;;
10641;SDS011;5369;49.586;8.646;2023-05-03T12:15:27;4.87;;;3.70;;
10641;SDS011;5369;49.586;8.646;2023-05-03T12:17:54;4.53;;;3.80;;
10641;SDS011;5369;49.586;8.646;2023-05-03T12:20:21;4.93;;;3.70;;
10641;SDS011;5369;49.586;8.646;2023-05-03T12:22:51;5.80;;;3.53;;
10641;SDS011;5369;49.586;8.646;2023-05-03T12:25:17;4.77;;;3.20;;
10641;SDS011;5369;49.586;8.646;2023-05-03T12:27:44;4.00;;;3.00;;
10641;SDS011;5369;49.586;8.646;2023-05-03T12:30:10;5.33;;;3.60;;
10641;SDS011;5369;49.586;8.646;2023-05-03T12:32:37;5.20;;;3.90;;
10641;SDS011;5369;49.586;8.646;2023-05-03T12:35:04;5.27;;;3.70;;
10641;SDS011;5369;49.586;8.646;2023-05-03T12:37:30;4.60;;;3.27;;
10641;SDS011;5369;49.586;8.646;2023-05-03T12:39:56;4.70;;;3.10;;
10641;SDS011;5369;49.586;8.646;2023-05-03T12:42:22;3.13;;;2.80;;
10641;SDS011;5369;49.586;8.646;2023-05-03T12:44:50;4.60;;;3.20;;
10641;SDS011;5369;49.586;8.646;2023-05-03T12:47:16;3.17;;;2.60;;
10641;SDS011;5369;49.586;8.646;2023-05-03T12:49:42;3.23;;;2.80;;
10641;SDS011;5369;49.586;8.646;2023-05-03T12:52:08;6.00;;;2.80;;
10641;SDS011;5369;49.586;8.646;2023-05-03T12:54:35;3.53;;;2.70;;
10641;SDS011;5369;49.586;8.646;2023-05-03T12:57:02;6.40;;;2.97;;
10641;SDS011;5369;49.586;8.646;2023-05-03T12:59:28;5.20;;;3.40;;
10641;SDS011;5369;49.586;8.646;2023-05-03T13:01:55;3.83;;;3.00;;
10641;SDS011;5369;49.586;8.646;2023-05-03T13:04:21;4.43;;;3.47;;
10641;SDS011;5369;49.586;8.646;2023-05-03T13:06:47;3.47;;;2.83;;
10641;SDS011;5369;49.586;8.646;2023-05-03T13:09:17;4.30;;;3.27;;
10641;SDS011;5369;49.586;8.646;2023-05-03T13:11:43;3.57;;;2.60;;
10641;SDS011;5369;49.586;8.646;2023-05-03T13:14:10;3.87;;;2.57;;
10641;SDS011;5369;49.586;8.646;2023-05-03T13:16:42;3.23;;;2.20;;
10641;SDS011;5369;49.586;8.646;2023-05-03T13:19:12;3.30;;;2.70;;
10641;SDS011;5369;49.586;8.646;2023-05-03T13:21:38;3.33;;;2.53;;
10641;SDS011;5369;49.586;8.646;2023-05-03T13:24:04;3.53;;;2.63;;
10641;SDS011;5369;49.586;8.646;2023-05-03T13:26:31;2.50;;;2.30;;
10641;SDS011;5369;49.586;8.646;2023-05-03T13:28:58;4.07;;;2.63;;
10641;SDS011;5369;49.586;8.646;2023-05-03T13:31:24;5.17;;;2.80;;
10641;SDS011;5369;49.586;8.646;2023-05-03T13:33:54;2.83;;;2.53;;
10641;SDS011;5369;49.586;8.646;2023-05-03T13:36:24;5.33;;;2.80;;
10641;SDS011;5369;49.586;8.646;2023-05-03T13:38:51;3.00;;;2.27;;
10641;SDS011;5369;49.586;8.646;2023-05-03T13:41:18;9.90;;;2.80;;
10641;SDS011;5369;49.586;8.646;2023-05-03T13:43:44;3.37;;;2.20;;
10641;SDS011;5369;49.586;8.646;2023-05-03T13:46:10;2.83;;;2.20;;
10641;SDS011;5369;49.586;8.646;2023-05-03T13:48:37;2.83;;;2.30;;
10641;SDS011;5369;49.586;8.646;2023-05-03T13:51:06;3.07;;;2.50;;
10641;SDS011;5369;49.586;8.646;2023-05-03T13:53:33;3.30;;;2.40;;
10641;SDS011;5369;49.586;8.646;2023-05-03T13:55:59;3.30;;;2.60;;
10641;SDS011;5369;49.586;8.646;2023-05-03T13:58:25;4.77;;;2.33;;
10641;SDS011;5369;49.586;8.646;2023-05-03T14:00:51;3.83;;;2.40;;
10641;SDS011;5369;49.586;8.646;2023-05-03T14:03:17;3.93;;;2.23;;
10641;SDS011;5369;49.586;8.646;2023-05-03T14:05:44;4.43;;;2.30;;
10641;SDS011;5369;49.586;8.646;2023-05-03T14:08:10;5.20;;;2.30;;
10641;SDS011;5369;49.586;8.646;2023-05-03T14:10:36;2.63;;;2.17;;
10641;SDS011;5369;49.586;8.646;2023-05-03T14:13:03;3.70;;;2.40;;
10641;SDS011;5369;49.586;8.646;2023-05-03T14:15:29;3.00;;;2.37;;
10641;SDS011;5369;49.586;8.646;2023-05-03T14:17:55;6.07;;;2.67;;
10641;SDS011;5369;49.586;8.646;2023-05-03T14:20:21;3.30;;;2.50;;
10641;SDS011;5369;49.586;8.646;2023-05-03T14:22:48;3.37;;;2.37;;
10641;SDS011;5369;49.586;8.646;2023-05-03T14:25:14;2.70;;;2.20;;
10641;SDS011;5369;49.586;8.646;2023-05-03T14:27:40;3.17;;;2.47;;
10641;SDS011;5369;49.586;8.646;2023-05-03T14:30:07;2.93;;;2.17;;
10641;SDS011;5369;49.586;8.646;2023-05-03T14:32:34;4.43;;;2.20;;
10641;SDS011;5369;49.586;8.646;2023-05-03T14:35:00;3.53;;;2.00;;
10641;SDS011;5369;49.586;8.646;2023-05-03T14:37:27;3.93;;;2.07;;
10641;SDS011;5369;49.586;8.646;2023-05-03T14:39:53;3.30;;;2.00;;
10641;SDS011;5369;49.586;8.646;2023-05-03T14:42:19;4.80;;;2.33;;
10641;SDS011;5369;49.586;8.646;2023-05-03T14:44:46;2.30;;;2.00;;
10641;SDS011;5369;49.586;8.646;2023-05-03T14:47:12;2.10;;;1.90;;
10641;SDS011;5369;49.586;8.646;2023-05-03T14:49:38;3.83;;;2.20;;
10641;SDS011;5369;49.586;8.646;2023-05-03T14:52:05;5.40;;;2.10;;
10641;SDS011;5369;49.586;8.646;2023-05-03T14:54:32;2.53;;;1.73;;
10641;SDS011;5369;49.586;8.646;2023-05-03T14:56:58;3.23;;;2.13;;
10641;SDS011;5369;49.586;8.646;2023-05-03T14:59:25;4.57;;;1.93;;
10641;SDS011;5369;49.586;8.646;2023-05-03T15:01:51;2.53;;;1.90;;
10641;SDS011;5369;49.586;8.646;2023-05-03T15:04:19;2.57;;;2.10;;
10641;SDS011;5369;49.586;8.646;2023-05-03T15:06:45;2.53;;;1.90;;
10641;SDS011;5369;49.586;8.646;2023-05-03T15:09:11;2.50;;;2.07;;
10641;SDS011;5369;49.586;8.646;2023-05-03T15:11:38;2.63;;;1.80;;
10641;SDS011;5369;49.586;8.646;2023-05-03T15:14:05;2.63;;;2.20;;